Pays
Station

 

Conditions  météo  pour  Laghouat  -  Algérie    Algérie

  
19 °C
    
 
 

METAR pour Laghouat :

DAUL 232100Z 19012KT 9999 BKN030 19/07 Q1007

 

Voici le bulletin pour Laghouat - Algérie.
 
Le bulletin a été fait il y a une heure et 1 minutes, à 21:00 UTC .
Le vent soufflait à la vitesse de 6.2 mètres par seconde de Sud (190°).
 
La température était de 19 °C, avec un point de rosée à 7 °C.
La pression atmosphérique était de 1007 hPa.
L'humidité relative était de 45.6%.
 
Il y avait 5 à 7/8ème de nébulosité à une hauteur de 914 mètres.
 
La visibilité globale était de supérieure à 10 kilomètres.
 

 
 
 

Pays :   A   B   C   D   E   F   G   H   I   J   K   L   M   N   O   P   Q   R   S   T   U   V   W   Y   Z

 

Partenaires :  Info Météo avec Met'info
Météo Marine avec MeteoMarine.net
Infos Site  |  Infos Légales  |  Crédits  |  Confidentialité
Contactez-nous  |  Ajouter aux favoris
© 2013-2019 METAR - Tous droits réservés